Time;durP1;ratioP1;P1;durP2;ratioP2;P2;SDS_P1;SDS_P2;PMS_P1;PMS_P2;Temp;Humidity;BMP_temperature;BMP_pressure;BME280_temperature;BME280_humidity;BME280_pressure;Samples;Min_cycle;Max_cycle;Signal;HPM_P1;HPM_P2
2022/02/21 00:00:15;;;;;;;4.72;2.10;;;12.50;46.80;;;;;;4974326;28;20023;-65
2022/02/21 00:02:43;;;;;;;4.63;2.60;;;12.50;46.90;;;;;;4992755;28;20040;-66
2022/02/21 00:05:11;;;;;;;12.65;2.78;;;12.50;47.00;;;;;;4992205;28;20107;-65
2022/02/21 00:07:37;;;;;;;5.30;2.00;;;12.50;47.00;;;;;;4992532;28;20061;-64
2022/02/21 00:10:04;;;;;;;4.53;2.47;;;12.40;47.00;;;;;;4992284;28;20037;-65
2022/02/21 00:12:30;;;;;;;3.47;1.80;;;12.40;47.00;;;;;;4992844;28;20033;-63
2022/02/21 00:14:56;;;;;;;3.72;2.10;;;12.50;47.00;;;;;;4992331;28;20030;-64
2022/02/21 00:17:21;;;;;;;3.75;2.25;;;12.50;46.90;;;;;;4991906;28;20533;-63
2022/02/21 00:19:47;;;;;;;5.22;2.17;;;12.50;46.80;;;;;;4975075;28;20073;-64
2022/02/21 00:22:13;;;;;;;4.18;2.30;;;12.60;46.80;;;;;;4974506;28;20488;-64
2022/02/21 00:24:38;;;;;;;4.45;2.00;;;12.60;46.80;;;;;;4992426;28;20034;-64
2022/02/21 00:27:04;;;;;;;3.90;2.00;;;12.50;46.80;;;;;;4992611;28;20050;-64
2022/02/21 00:29:30;;;;;;;4.93;2.13;;;12.50;47.00;;;;;;4991935;28;20052;-65
2022/02/21 00:31:56;;;;;;;4.80;2.30;;;12.40;47.20;;;;;;4974950;28;20030;-65
2022/02/21 00:34:22;;;;;;;3.28;1.92;;;12.30;47.40;;;;;;4991494;28;20027;-64
2022/02/21 00:36:47;;;;;;;3.75;2.08;;;12.30;47.50;;;;;;4991355;28;20022;-65
2022/02/21 00:39:13;;;;;;;3.42;1.80;;;12.30;47.60;;;;;;4994516;28;20461;-65
2022/02/21 00:41:39;;;;;;;4.10;2.25;;;12.30;47.50;;;;;;4996076;28;20381;-65
2022/02/21 00:44:05;;;;;;;13.68;8.23;;;12.30;47.60;;;;;;4995734;28;20023;-64
2022/02/21 00:46:31;;;;;;;6.75;4.63;;;12.30;47.80;;;;;;4995273;28;20474;-64
2022/02/21 00:48:56;;;;;;;6.95;4.82;;;12.30;47.80;;;;;;4995778;28;20018;-65
2022/02/21 00:51:22;;;;;;;6.18;3.90;;;12.30;47.80;;;;;;4977795;28;20117;-64
2022/02/21 00:53:48;;;;;;;20.50;15.20;;;12.30;47.90;;;;;;4995931;28;20030;-64
2022/02/21 00:56:14;;;;;;;14.05;10.20;;;12.30;47.90;;;;;;4995420;28;20517;-64
2022/02/21 00:58:39;;;;;;;10.45;8.07;;;12.30;47.90;;;;;;4995347;28;20026;-64
2022/02/21 01:01:05;;;;;;;9.43;7.03;;;12.30;47.90;;;;;;4995320;28;20028;-64
2022/02/21 01:03:31;;;;;;;12.85;10.38;;;12.30;47.80;;;;;;4995117;28;20114;-65
2022/02/21 01:05:57;;;;;;;26.33;17.20;;;12.40;47.80;;;;;;4978100;28;20035;-63
2022/02/21 01:08:24;;;;;;;52.83;33.03;;;12.40;47.70;;;;;;4994824;28;20026;-64
2022/02/21 01:10:49;;;;;;;15.20;11.75;;;12.30;47.80;;;;;;4977840;28;20129;-65
2022/02/21 01:13:16;;;;;;;10.55;7.15;;;12.30;47.90;;;;;;4977705;28;20474;-65
2022/02/21 01:15:41;;;;;;;9.57;8.20;;;12.20;48.00;;;;;;4995036;28;20073;-64
2022/02/21 01:18:07;;;;;;;5.00;2.83;;;12.30;48.20;;;;;;4995394;28;20054;-65
2022/02/21 01:20:33;;;;;;;17.92;10.80;;;12.20;48.20;;;;;;4994600;28;20512;-66
2022/02/21 01:22:58;;;;;;;4.78;2.92;;;12.20;48.20;;;;;;4995156;28;20085;-65
2022/02/21 01:25:25;;;;;;;5.53;3.03;;;12.20;47.90;;;;;;4995018;28;20038;-64
2022/02/21 01:27:51;;;;;;;4.80;2.70;;;12.10;47.80;;;;;;4977511;28;20104;-64
2022/02/21 01:30:17;;;;;;;4.85;2.90;;;12.00;47.90;;;;;;4994547;28;20031;-65
2022/02/21 01:32:43;;;;;;;4.65;3.17;;;12.00;48.00;;;;;;4994774;28;20027;-64
2022/02/21 01:35:11;;;;;;;4.80;3.00;;;11.90;48.10;;;;;;4995314;28;20030;-65
2022/02/21 01:37:37;;;;;;;5.00;3.00;;;12.00;48.40;;;;;;4977235;28;20027;-66
2022/02/21 01:40:07;;;;;;;6.20;3.20;;;11.90;48.50;;;;;;4994892;28;20022;-63
2022/02/21 01:42:33;;;;;;;4.95;2.55;;;11.90;48.80;;;;;;4961163;28;20033;-65
2022/02/21 01:44:59;;;;;;;5.05;3.03;;;11.80;49.20;;;;;;4994693;28;20035;-65
2022/02/21 01:47:25;;;;;;;4.28;2.60;;;11.90;49.70;;;;;;4994354;28;20031;-65
2022/02/21 01:49:51;;;;;;;4.00;2.53;;;11.90;49.80;;;;;;4976054;28;20077;-65
2022/02/21 01:52:18;;;;;;;4.15;2.72;;;11.90;50.60;;;;;;4994402;28;20441;-65
2022/02/21 01:54:45;;;;;;;4.90;2.50;;;11.90;50.10;;;;;;4994282;28;20031;-67
2022/02/21 01:57:11;;;;;;;4.60;2.55;;;12.00;50.40;;;;;;4977223;28;20034;-65
2022/02/21 01:59:38;;;;;;;5.18;2.85;;;12.00;50.70;;;;;;4976693;28;20057;-63
2022/02/21 02:02:05;;;;;;;4.75;2.80;;;12.00;50.80;;;;;;4994498;28;20030;-64
2022/02/21 02:04:31;;;;;;;5.05;2.60;;;12.00;51.10;;;;;;4994061;28;20041;-63
2022/02/21 02:06:58;;;;;;;4.18;2.15;;;12.00;51.50;;;;;;4994397;28;20032;-64
2022/02/21 02:09:24;;;;;;;4.18;2.75;;;12.00;51.40;;;;;;4976366;28;20084;-64
2022/02/21 02:11:51;;;;;;;4.40;2.35;;;12.00;51.20;;;;;;4976728;28;20027;-64
2022/02/21 02:14:31;;;;;;;3.97;2.08;;;12.10;51.30;;;;;;4994279;28;20022;-64
2022/02/21 02:17:02;;;;;;;3.50;2.40;;;12.20;51.20;;;;;;4994468;28;20026;-65
2022/02/21 02:19:28;;;;;;;3.60;2.08;;;12.20;51.10;;;;;;4993803;28;20038;-65
2022/02/21 02:21:57;;;;;;;2.80;1.90;;;12.30;50.80;;;;;;4994232;28;20026;-65
2022/02/21 02:24:24;;;;;;;3.40;1.60;;;12.40;50.60;;;;;;4993789;28;20035;-64
2022/02/21 02:26:54;;;;;;;2.60;1.60;;;12.40;50.80;;;;;;4993740;28;20042;-64
2022/02/21 02:29:21;;;;;;;2.55;1.40;;;12.40;51.30;;;;;;4993024;28;20399;-64
2022/02/21 02:31:47;;;;;;;5.63;1.85;;;12.40;50.40;;;;;;4993722;28;20474;-64
2022/02/21 02:34:13;;;;;;;3.10;1.42;;;12.50;50.20;;;;;;4993630;28;20109;-64
2022/02/21 02:36:39;;;;;;;2.53;1.50;;;12.60;50.00;;;;;;4975729;28;20533;-64
2022/02/21 02:39:04;;;;;;;1.85;1.20;;;12.60;49.90;;;;;;4993997;28;20113;-64
2022/02/21 02:41:30;;;;;;;3.08;1.40;;;12.60;49.80;;;;;;4975886;28;20473;-65
2022/02/21 02:43:56;;;;;;;2.00;1.10;;;12.60;49.70;;;;;;4976179;28;20072;-65
2022/02/21 02:46:22;;;;;;;1.95;1.27;;;12.60;49.60;;;;;;4976103;28;20026;-66
2022/02/21 02:48:49;;;;;;;2.53;1.70;;;12.60;49.60;;;;;;4960319;28;20073;-64
2022/02/21 02:51:27;;;;;;;2.75;1.67;;;12.50;49.90;;;;;;4994338;28;20097;-64
2022/02/21 02:53:54;;;;;;;3.65;1.70;;;12.50;50.20;;;;;;4994007;28;20022;-63
2022/02/21 02:56:27;;;;;;;3.10;1.50;;;12.50;50.20;;;;;;4975807;28;20035;-64
2022/02/21 02:58:53;;;;;;;3.40;1.80;;;12.40;50.30;;;;;;4976297;28;20030;-64
2022/02/21 03:01:22;;;;;;;3.00;1.70;;;12.40;50.40;;;;;;4975350;28;20461;-65
2022/02/21 03:03:48;;;;;;;2.90;1.40;;;12.40;50.30;;;;;;4993983;28;20026;-64
2022/02/21 03:06:13;;;;;;;2.63;1.40;;;12.40;50.10;;;;;;4993312;28;20072;-63
2022/02/21 03:08:39;;;;;;;2.95;1.50;;;12.40;50.10;;;;;;4993035;28;20432;-64
2022/02/21 03:11:09;;;;;;;1.88;1.30;;;12.40;49.80;;;;;;4976092;28;20031;-65
2022/02/21 03:13:35;;;;;;;2.80;1.30;;;12.40;49.80;;;;;;4975396;28;20026;-63
2022/02/21 03:16:02;;;;;;;2.13;1.40;;;12.30;49.60;;;;;;4993336;28;20049;-63
2022/02/21 03:18:28;;;;;;;2.85;1.58;;;12.30;49.70;;;;;;4992374;28;20032;-64
2022/02/21 03:20:54;;;;;;;3.00;1.80;;;12.20;49.60;;;;;;4994080;28;20026;-64
2022/02/21 03:23:19;;;;;;;4.20;2.25;;;12.20;49.90;;;;;;4975513;28;20084;-64
2022/02/21 03:25:45;;;;;;;4.85;2.42;;;12.10;49.90;;;;;;4992956;28;20030;-64
2022/02/21 03:28:13;;;;;;;5.03;2.47;;;11.90;50.10;;;;;;4975462;28;20062;-64
2022/02/21 03:30:41;;;;;;;6.00;2.75;;;11.70;50.40;;;;;;4975345;28;20034;-65
2022/02/21 03:33:08;;;;;;;6.65;2.67;;;11.60;50.80;;;;;;4992049;28;20049;-65
2022/02/21 03:35:35;;;;;;;5.68;3.10;;;11.40;51.20;;;;;;4974915;28;20030;-64
2022/02/21 03:38:01;;;;;;;4.45;2.78;;;11.30;51.50;;;;;;4975771;28;20485;-64
2022/02/21 03:40:28;;;;;;;6.35;2.75;;;11.20;51.70;;;;;;4992510;28;20068;-65
2022/02/21 03:42:54;;;;;;;4.28;2.40;;;11.10;51.80;;;;;;4992602;28;20109;-64
2022/02/21 03:45:22;;;;;;;6.97;2.55;;;11.10;51.80;;;;;;4975203;28;20134;-65
2022/02/21 03:47:51;;;;;;;4.68;2.65;;;11.10;52.00;;;;;;4992435;28;20037;-64
2022/02/21 03:50:17;;;;;;;3.38;2.22;;;11.00;52.00;;;;;;4992645;28;20065;-64
2022/02/21 03:52:42;;;;;;;4.45;2.40;;;11.00;52.00;;;;;;4992006;28;20058;-65
2022/02/21 03:55:09;;;;;;;4.72;2.40;;;11.00;52.20;;;;;;4992465;28;20389;-65
2022/02/21 03:57:35;;;;;;;3.72;2.22;;;10.90;52.30;;;;;;4974635;28;20121;-65
2022/02/21 04:00:01;;;;;;;4.15;2.35;;;10.90;52.30;;;;;;4959427;28;20101;-65
2022/02/21 04:02:27;;;;;;;4.05;2.20;;;10.90;52.60;;;;;;4992150;28;20026;-65
2022/02/21 04:04:53;;;;;;;4.95;2.33;;;10.70;52.70;;;;;;4992169;28;20034;-64
2022/02/21 04:07:18;;;;;;;4.38;2.40;;;10.70;53.10;;;;;;4975296;28;20026;-65
2022/02/21 04:09:44;;;;;;;4.90;2.63;;;10.70;53.40;;;;;;4992024;28;20033;-64
2022/02/21 04:12:10;;;;;;;7.13;2.58;;;10.60;53.50;;;;;;4975386;28;20027;-64
2022/02/21 04:14:36;;;;;;;4.00;2.22;;;10.60;53.60;;;;;;4978237;28;20455;-64
2022/02/21 04:17:02;;;;;;;3.88;2.30;;;10.50;54.00;;;;;;4979128;28;20034;-66
2022/02/21 04:19:28;;;;;;;3.50;2.35;;;10.40;54.00;;;;;;4996029;28;20059;-64
2022/02/21 04:21:53;;;;;;;4.40;2.33;;;10.40;54.10;;;;;;4996591;28;20031;-65
2022/02/21 04:24:19;;;;;;;6.45;2.38;;;10.50;54.20;;;;;;4978888;28;20048;-65
2022/02/21 04:26:45;;;;;;;4.07;2.38;;;10.40;54.30;;;;;;4996223;28;20026;-64
2022/02/21 04:29:10;;;;;;;4.00;2.50;;;10.40;54.30;;;;;;4996545;28;20421;-65
2022/02/21 04:31:36;;;;;;;6.43;2.83;;;10.40;54.90;;;;;;4995584;28;20058;-65
2022/02/21 04:34:02;;;;;;;6.90;2.83;;;10.50;54.30;;;;;;4996355;28;20029;-65
2022/02/21 04:36:30;;;;;;;5.97;2.83;;;10.40;54.40;;;;;;4995447;28;20026;-64
2022/02/21 04:38:56;;;;;;;5.20;3.20;;;10.40;54.50;;;;;;4996314;28;20022;-64
2022/02/21 04:41:22;;;;;;;5.40;3.10;;;10.50;54.50;;;;;;4996044;28;20050;-64
2022/02/21 04:43:47;;;;;;;4.82;2.85;;;10.50;54.50;;;;;;4995559;28;20030;-65
2022/02/21 04:46:13;;;;;;;6.18;3.55;;;10.50;54.50;;;;;;4995809;28;20049;-65
2022/02/21 04:48:39;;;;;;;9.75;3.28;;;10.50;54.60;;;;;;4995287;28;20553;-64
2022/02/21 04:51:05;;;;;;;9.32;3.47;;;10.50;54.60;;;;;;4995794;28;20150;-63
2022/02/21 04:53:30;;;;;;;7.32;3.13;;;10.50;54.60;;;;;;4995241;28;20164;-65
2022/02/21 04:55:56;;;;;;;6.65;3.33;;;10.60;54.60;;;;;;4995810;28;20470;-65
2022/02/21 04:58:22;;;;;;;6.55;3.58;;;10.70;54.50;;;;;;4978382;28;20022;-64
2022/02/21 05:00:48;;;;;;;5.47;2.95;;;10.70;54.30;;;;;;4977891;28;20037;-64
2022/02/21 05:03:13;;;;;;;6.10;2.92;;;10.80;54.20;;;;;;4977902;28;20370;-64
2022/02/21 05:05:39;;;;;;;7.65;3.22;;;10.80;54.00;;;;;;4994934;28;20030;-64
2022/02/21 05:08:05;;;;;;;4.85;2.67;;;10.80;54.00;;;;;;4995727;28;20037;-64
2022/02/21 05:10:30;;;;;;;9.85;3.00;;;10.80;54.10;;;;;;4977631;28;20022;-64
2022/02/21 05:12:56;;;;;;;5.88;3.20;;;10.80;54.10;;;;;;4995703;28;20462;-63
2022/02/21 05:15:21;;;;;;;7.95;3.67;;;10.80;54.10;;;;;;4995250;28;20096;-65
2022/02/21 05:17:47;;;;;;;5.95;2.97;;;10.80;54.20;;;;;;4977449;28;20092;-63
2022/02/21 05:20:13;;;;;;;4.65;3.05;;;10.70;54.30;;;;;;4995512;28;20026;-63
2022/02/21 05:22:39;;;;;;;5.78;3.03;;;10.70;54.50;;;;;;4977188;28;20054;-64
2022/02/21 05:25:06;;;;;;;6.05;2.97;;;10.70;54.60;;;;;;4995036;28;20073;-64
2022/02/21 05:27:36;;;;;;;6.22;3.55;;;10.70;54.50;;;;;;4994443;28;20101;-64
2022/02/21 05:30:04;;;;;;;5.45;2.80;;;10.80;54.40;;;;;;4995179;28;20054;-63
2022/02/21 05:32:30;;;;;;;5.70;3.10;;;10.90;54.30;;;;;;4994485;28;20370;-64
2022/02/21 05:34:56;;;;;;;6.95;3.22;;;10.90;54.10;;;;;;4977415;28;20030;-65
2022/02/21 05:37:22;;;;;;;9.57;3.50;;;10.90;54.20;;;;;;4995036;28;20023;-65
2022/02/21 05:39:47;;;;;;;8.60;3.60;;;10.90;54.30;;;;;;4994377;28;20037;-65
2022/02/21 05:42:14;;;;;;;5.07;3.20;;;10.90;54.40;;;;;;4995171;28;20026;-65
2022/02/21 05:44:40;;;;;;;6.60;3.60;;;10.90;54.50;;;;;;4994390;28;20124;-64
2022/02/21 05:47:06;;;;;;;7.47;3.70;;;10.90;54.40;;;;;;4994782;28;20061;-64
2022/02/21 05:49:32;;;;;;;10.82;4.22;;;11.00;54.30;;;;;;4976723;28;20026;-64
2022/02/21 05:51:58;;;;;;;12.38;3.63;;;11.00;54.60;;;;;;4994881;28;20056;-64
2022/02/21 05:54:24;;;;;;;8.55;4.05;;;11.00;54.50;;;;;;4994216;28;20081;-64
2022/02/21 05:56:50;;;;;;;9.80;3.97;;;11.00;54.50;;;;;;4994368;28;20023;-64
2022/02/21 05:59:16;;;;;;;10.98;4.47;;;11.00;54.80;;;;;;4977216;28;20068;-65
2022/02/21 06:01:42;;;;;;;7.63;3.92;;;11.00;55.00;;;;;;4976768;28;20022;-62
2022/02/21 06:04:08;;;;;;;7.68;4.57;;;11.00;55.20;;;;;;4994533;28;20370;-64
2022/02/21 06:06:34;;;;;;;9.45;4.72;;;10.90;55.50;;;;;;4993674;28;20033;-65
2022/02/21 06:09:01;;;;;;;11.00;4.68;;;10.80;55.90;;;;;;4994519;28;20030;-64
2022/02/21 06:11:27;;;;;;;13.82;5.03;;;10.80;56.50;;;;;;4994298;28;20465;-64
2022/02/21 06:13:53;;;;;;;9.95;4.68;;;10.70;56.80;;;;;;4993415;28;20033;-65
2022/02/21 06:16:18;;;;;;;8.98;5.10;;;10.70;57.30;;;;;;4994461;28;20149;-63
2022/02/21 06:18:44;;;;;;;12.65;4.75;;;10.60;57.60;;;;;;4976270;28;20035;-64
2022/02/21 06:21:10;;;;;;;6.85;4.50;;;10.60;57.90;;;;;;4994556;28;20022;-64
2022/02/21 06:23:35;;;;;;;12.63;5.45;;;10.50;58.00;;;;;;4976193;28;20030;-64
2022/02/21 06:26:04;;;;;;;18.85;4.88;;;10.50;58.20;;;;;;4976603;28;20042;-65
2022/02/21 06:28:30;;;;;;;12.43;6.90;;;10.50;58.20;;;;;;4993742;28;20050;-65
2022/02/21 06:30:56;;;;;;;11.55;4.68;;;10.50;57.90;;;;;;4975515;28;20038;-64
2022/02/21 06:33:21;;;;;;;10.02;4.68;;;10.50;58.50;;;;;;4976590;28;20030;-65
2022/02/21 06:35:47;;;;;;;9.38;4.70;;;10.60;57.80;;;;;;4992657;28;20469;-66
2022/02/21 06:38:13;;;;;;;9.55;4.68;;;10.60;57.60;;;;;;4976486;28;20026;-64
2022/02/21 06:40:39;;;;;;;17.05;5.53;;;10.70;57.50;;;;;;4993351;28;20506;-65
2022/02/21 06:43:05;;;;;;;17.48;4.95;;;10.70;57.30;;;;;;4993925;28;20150;-64
2022/02/21 06:45:30;;;;;;;12.75;5.43;;;10.70;57.20;;;;;;4976377;28;20093;-64
2022/02/21 06:47:57;;;;;;;13.55;5.30;;;10.80;57.10;;;;;;4975921;28;20381;-64
2022/02/21 06:50:24;;;;;;;16.25;6.88;;;10.90;57.00;;;;;;4993675;28;20053;-65
2022/02/21 06:52:49;;;;;;;16.95;5.30;;;10.90;57.00;;;;;;4975522;28;20491;-65
2022/02/21 06:55:16;;;;;;;20.35;7.22;;;10.90;56.80;;;;;;4993549;28;20109;-65
2022/02/21 06:57:43;;;;;;;17.80;6.85;;;10.90;56.60;;;;;;4975342;28;20089;-65
2022/02/21 07:00:09;;;;;;;37.00;12.55;;;11.00;56.40;;;;;;4976233;28;20026;-64
2022/02/21 07:02:36;;;;;;;16.13;5.28;;;11.00;56.00;;;;;;4960095;28;20122;-65
2022/02/21 07:05:03;;;;;;;13.52;6.15;;;11.10;55.40;;;;;;4993145;28;20030;-65
2022/02/21 07:07:29;;;;;;;10.73;5.78;;;11.20;55.00;;;;;;4976024;28;20038;-65
2022/02/21 07:09:55;;;;;;;14.98;5.00;;;11.30;54.70;;;;;;4975196;28;20362;-65
2022/02/21 07:12:20;;;;;;;14.13;5.18;;;11.40;54.50;;;;;;4993388;28;20022;-64
2022/02/21 07:14:47;;;;;;;17.17;4.35;;;11.40;54.20;;;;;;4992832;28;20041;-64
2022/02/21 07:17:13;;;;;;;9.55;3.92;;;11.50;54.00;;;;;;4975840;28;20373;-64
2022/02/21 07:19:39;;;;;;;9.90;3.72;;;11.40;53.80;;;;;;4992500;28;20031;-65
2022/02/21 07:22:04;;;;;;;11.77;4.47;;;11.30;54.20;;;;;;4991813;28;20117;-65
2022/02/21 07:24:31;;;;;;;17.23;5.38;;;11.30;54.60;;;;;;4993122;28;20070;-64
2022/02/21 07:26:57;;;;;;;12.60;4.80;;;11.30;54.90;;;;;;4974852;28;20054;-64
2022/02/21 07:29:23;;;;;;;12.25;4.82;;;11.30;55.20;;;;;;4993569;28;20490;-65
2022/02/21 07:31:50;;;;;;;10.55;4.60;;;11.30;55.40;;;;;;4975085;28;20036;-64
2022/02/21 07:34:16;;;;;;;10.82;5.47;;;11.40;55.50;;;;;;4975234;28;20081;-63
2022/02/21 07:36:42;;;;;;;14.55;5.03;;;11.40;55.50;;;;;;4992062;28;20022;-63
2022/02/21 07:39:08;;;;;;;16.38;5.47;;;11.40;55.40;;;;;;4992519;28;20048;-63
2022/02/21 07:41:33;;;;;;;10.73;5.25;;;11.50;55.30;;;;;;4992401;28;20026;-63
2022/02/21 07:43:59;;;;;;;11.32;5.65;;;11.50;55.20;;;;;;4991447;28;20022;-63
2022/02/21 07:46:26;;;;;;;13.20;4.68;;;11.60;55.10;;;;;;4992288;28;20038;-63
2022/02/21 07:48:52;;;;;;;12.73;5.00;;;11.60;55.00;;;;;;4991296;28;20054;-64
2022/02/21 07:51:18;;;;;;;16.65;6.57;;;11.70;54.90;;;;;;4992129;28;20070;-63
2022/02/21 07:53:44;;;;;;;12.27;4.78;;;11.70;54.90;;;;;;4974514;28;20469;-60
2022/02/21 07:56:10;;;;;;;9.05;5.20;;;11.80;54.60;;;;;;4990993;28;20040;-62
2022/02/21 07:58:35;;;;;;;19.88;4.93;;;11.90;54.50;;;;;;4991948;28;20031;-61
2022/02/21 08:01:01;;;;;;;15.75;3.63;;;12.00;54.30;;;;;;4991553;28;20160;-63
2022/02/21 08:03:27;;;;;;;12.07;3.85;;;12.10;54.00;;;;;;4991471;28;20023;-61
2022/02/21 08:05:56;;;;;;;15.05;3.75;;;12.10;53.50;;;;;;4991309;28;20389;-61
2022/02/21 08:08:22;;;;;;;16.90;4.78;;;12.30;53.30;;;;;;4991994;28;20121;-60
2022/02/21 08:10:47;;;;;;;10.40;4.57;;;12.40;53.20;;;;;;4991551;28;20181;-61
2022/02/21 08:13:13;;;;;;;11.13;4.38;;;12.40;53.30;;;;;;4991858;28;20027;-61
2022/02/21 08:15:39;;;;;;;17.17;5.38;;;12.40;53.40;;;;;;4974497;28;20041;-61
2022/02/21 08:18:04;;;;;;;13.95;4.85;;;12.40;53.60;;;;;;4974369;28;20027;-61
2022/02/21 08:20:30;;;;;;;11.70;5.05;;;12.30;53.90;;;;;;4974676;28;20121;-61
2022/02/21 08:22:56;;;;;;;17.92;8.07;;;12.30;54.10;;;;;;4974086;28;20113;-62
2022/02/21 08:25:22;;;;;;;19.48;9.80;;;12.30;54.00;;;;;;4974410;28;20034;-61
2022/02/21 08:27:51;;;;;;;26.75;17.38;;;12.40;53.90;;;;;;4991598;28;20037;-62
2022/02/21 08:30:21;;;;;;;19.92;7.93;;;12.40;53.80;;;;;;4992342;28;20031;-65
2022/02/21 08:32:48;;;;;;;22.92;11.43;;;12.50;54.40;;;;;;4991122;28;20470;-62
2022/02/21 08:35:14;;;;;;;25.33;10.55;;;12.60;53.70;;;;;;4992209;28;20061;-61
2022/02/21 08:37:40;;;;;;;15.70;8.93;;;12.60;53.40;;;;;;4974914;28;20035;-61
2022/02/21 08:40:09;;;;;;;15.20;5.18;;;12.70;53.10;;;;;;4991647;28;20441;-61
2022/02/21 08:42:35;;;;;;;29.05;5.30;;;12.80;52.90;;;;;;4992159;28;20034;-62
2022/02/21 08:45:01;;;;;;;14.63;5.47;;;12.80;52.60;;;;;;4973827;28;20062;-61
2022/02/21 08:47:27;;;;;;;14.35;5.07;;;12.90;52.20;;;;;;4968308;28;20035;-61
2022/02/21 08:49:53;;;;;;;12.93;4.30;;;13.00;52.00;;;;;;4975255;28;20061;-61
2022/02/21 08:52:18;;;;;;;15.52;4.63;;;13.00;51.60;;;;;;4992837;28;20470;-61
2022/02/21 08:54:45;;;;;;;16.80;4.82;;;13.10;51.50;;;;;;4974214;28;20064;-62
2022/02/21 08:57:11;;;;;;;15.80;4.90;;;13.10;51.40;;;;;;4974029;28;20034;-58
2022/02/21 08:59:37;;;;;;;12.20;4.65;;;13.20;51.30;;;;;;4976682;28;20031;-61
2022/02/21 09:02:03;;;;;;;15.35;5.63;;;13.20;51.20;;;;;;4994600;28;20390;-63
2022/02/21 09:04:29;;;;;;;13.07;5.15;;;13.10;51.20;;;;;;4977595;28;20041;-61
2022/02/21 09:06:55;;;;;;;12.05;5.05;;;13.10;51.60;;;;;;4977375;28;20030;-59
2022/02/21 09:09:23;;;;;;;11.23;6.07;;;13.10;51.70;;;;;;4995263;28;20030;-63
2022/02/21 09:11:51;;;;;;;15.63;6.38;;;13.10;51.50;;;;;;4994632;28;20026;-64
2022/02/21 09:14:17;;;;;;;25.05;6.75;;;13.10;51.20;;;;;;4995338;28;20038;-66
2022/02/21 09:16:43;;;;;;;15.82;5.28;;;13.10;50.80;;;;;;4977344;28;20031;-66
2022/02/21 09:19:09;;;;;;;7.75;4.63;;;13.10;50.50;;;;;;4993590;28;20389;-65
2022/02/21 09:21:37;;;;;;;11.43;4.68;;;12.90;50.60;;;;;;4996117;28;20113;-63
2022/02/21 09:24:04;;;;;;;9.82;4.82;;;12.90;50.90;;;;;;4995196;28;20470;-63
2022/02/21 09:26:31;;;;;;;8.25;2.83;;;12.90;51.10;;;;;;4995180;28;20027;-64
2022/02/21 09:28:58;;;;;;;9.63;1.48;;;12.90;50.40;;;;;;4994378;28;20054;-58
2022/02/21 09:31:25;;;;;;;8.88;2.03;;;13.10;49.30;;;;;;4977828;28;20389;-60
2022/02/21 09:34:09;;;;;;;3.30;1.42;;;13.30;49.60;;;;;;4994044;28;20457;-62
2022/02/21 09:36:36;;;;;;;5.90;1.58;;;13.50;48.80;;;;;;4985791;28;20114;-61
2022/02/21 09:39:02;;;;;;;8.30;1.70;;;13.60;48.60;;;;;;4994119;28;20034;-65
2022/02/21 09:41:30;;;;;;;5.63;1.67;;;13.70;48.80;;;;;;4994968;28;20062;-55
2022/02/21 09:43:57;;;;;;;2.28;1.27;;;13.80;49.10;;;;;;4994127;28;20030;-59
2022/02/21 09:46:29;;;;;;;6.80;1.55;;;13.80;49.00;;;;;;4994208;28;20030;-57
2022/02/21 09:48:57;;;;;;;3.45;1.42;;;13.80;49.60;;;;;;4976703;28;20449;-60
2022/02/21 09:51:23;;;;;;;7.32;1.30;;;13.80;49.00;;;;;;4994625;28;20104;-56
2022/02/21 09:53:49;;;;;;;6.78;1.95;;;13.80;48.90;;;;;;4976652;28;20026;-64
2022/02/21 09:56:15;;;;;;;4.30;0.95;;;13.70;48.60;;;;;;4994349;28;20038;-58
2022/02/21 09:58:41;;;;;;;8.40;1.60;;;13.40;49.10;;;;;;4994641;28;20037;-60
2022/02/21 10:01:07;;;;;;;6.20;1.33;;;13.10;50.60;;;;;;4993625;28;20022;-61
2022/02/21 10:03:44;;;;;;;5.20;1.10;;;12.60;53.10;;;;;;4994157;28;20026;-57
2022/02/21 10:06:17;;;;;;;5.28;1.23;;;12.20;53.30;;;;;;4976060;28;20344;-57
2022/02/21 10:09:08;;;;;;;3.57;1.70;;;12.10;53.80;;;;;;4976583;28;20132;-59
2022/02/21 10:11:48;;;;;;;4.22;1.58;;;11.90;54.60;;;;;;4959646;28;20699;-59
2022/02/21 10:14:17;;;;;;;8.73;1.70;;;11.90;54.70;;;;;;4993350;28;20180;-62
2022/02/21 10:16:50;;;;;;;4.78;1.42;;;11.80;53.90;;;;;;4994341;28;20557;-61
2022/02/21 10:19:38;;;;;;;3.17;1.45;;;11.70;53.20;;;;;;4976450;28;20026;-59
2022/02/21 10:22:07;;;;;;;6.68;1.50;;;11.60;52.80;;;;;;4993015;28;20482;-60
2022/02/21 10:24:41;;;;;;;3.53;1.60;;;11.50;53.10;;;;;;4992853;28;20042;-58
2022/02/21 10:27:12;;;;;;;9.93;1.75;;;11.60;53.00;;;;;;4993674;28;20023;-61
2022/02/21 10:30:00;;;;;;;6.85;1.90;;;11.50;53.60;;;;;;4993411;28;20054;-56
2022/02/21 10:32:31;;;;;;;5.50;3.03;;;11.30;53.20;;;;;;4993971;28;20042;-58
2022/02/21 10:35:13;;;;;;;6.70;2.03;;;11.40;53.30;;;;;;4993023;28;20030;-56
2022/02/21 10:38:00;;;;;;;6.95;2.25;;;11.40;53.30;;;;;;4976027;28;20030;-57
2022/02/21 10:40:35;;;;;;;5.18;1.55;;;11.60;52.60;;;;;;4976105;28;20034;-63
2022/02/21 10:43:09;;;;;;;8.23;1.45;;;11.60;52.40;;;;;;4975533;28;20028;-57
2022/02/21 10:45:36;;;;;;;10.68;2.13;;;11.60;51.60;;;;;;4993222;28;20512;-58
2022/02/21 10:48:13;;;;;;;7.85;1.65;;;11.70;50.80;;;;;;4993082;28;20023;-60
2022/02/21 10:50:55;;;;;;;6.03;1.88;;;11.70;50.30;;;;;;4992540;28;20038;-63
2022/02/21 10:53:23;;;;;;;6.90;1.73;;;11.70;50.20;;;;;;4974929;28;20397;-65
2022/02/21 10:55:54;;;;;;;7.85;1.88;;;11.70;50.20;;;;;;4975497;28;20393;-60
2022/02/21 10:58:24;;;;;;;4.38;1.80;;;11.60;50.20;;;;;;4993543;28;20037;-59
2022/02/21 11:00:53;;;;;;;8.57;1.65;;;11.70;50.50;;;;;;4975241;28;20023;-61
2022/02/21 11:03:24;;;;;;;6.93;1.85;;;11.80;49.30;;;;;;4975041;28;20096;-61
2022/02/21 11:05:52;;;;;;;3.78;1.98;;;11.80;49.40;;;;;;4974546;28;20129;-61
2022/02/21 11:08:29;;;;;;;5.93;1.95;;;11.90;49.10;;;;;;4974505;28;20027;-58
2022/02/21 11:11:00;;;;;;;10.50;1.90;;;11.90;48.30;;;;;;4958774;28;20053;-59
2022/02/21 11:13:28;;;;;;;6.32;1.33;;;11.90;47.70;;;;;;4974451;28;20026;-58
2022/02/21 11:15:58;;;;;;;5.50;1.40;;;11.80;47.30;;;;;;4975174;28;20542;-57
2022/02/21 11:18:25;;;;;;;6.78;1.67;;;11.60;46.50;;;;;;4992426;28;20033;-58
2022/02/21 11:20:51;;;;;;;3.83;1.50;;;11.50;46.90;;;;;;4992414;28;20109;-56
2022/02/21 11:23:17;;;;;;;6.00;1.63;;;11.50;47.30;;;;;;4974006;28;20023;-61
2022/02/21 11:25:43;;;;;;;3.38;1.50;;;11.50;46.80;;;;;;4992453;28;20117;-58
2022/02/21 11:28:19;;;;;;;2.72;1.02;;;11.50;47.80;;;;;;4992074;28;20146;-57
2022/02/21 11:30:47;;;;;;;5.63;1.33;;;11.30;48.70;;;;;;4975418;28;20023;-57
2022/02/21 11:33:14;;;;;;;3.47;1.30;;;11.20;49.80;;;;;;4991273;28;20085;-56
2022/02/21 11:36:00;;;;;;;4.25;1.85;;;11.10;50.40;;;;;;4991459;28;20457;-60
2022/02/21 11:38:29;;;;;;;4.30;1.75;;;11.10;50.70;;;;;;4990581;28;20038;-57
2022/02/21 11:40:58;;;;;;;2.83;1.20;;;11.00;50.70;;;;;;4991647;28;20519;-57
2022/02/21 11:43:33;;;;;;;3.03;1.50;;;10.90;51.60;;;;;;4974353;28;20449;-61
2022/02/21 11:46:09;;;;;;;6.32;1.95;;;10.90;51.30;;;;;;4991376;28;20045;-59
2022/02/21 11:48:57;;;;;;;4.82;1.70;;;10.80;51.40;;;;;;4992418;28;20030;-59
2022/02/21 11:51:41;;;;;;;4.07;1.55;;;10.90;50.90;;;;;;4974925;28;20022;-57
2022/02/21 11:54:09;;;;;;;20.48;1.70;;;10.80;49.90;;;;;;4991729;28;20029;-61
2022/02/21 11:56:47;;;;;;;8.05;1.70;;;10.60;49.60;;;;;;4991533;28;20105;-59
2022/02/21 11:59:23;;;;;;;5.82;2.22;;;10.60;50.30;;;;;;4991516;28;20022;-59
2022/02/21 12:02:09;;;;;;;4.90;1.27;;;10.70;49.70;;;;;;4974347;28;20059;-60
2022/02/21 12:04:56;;;;;;;2.80;1.33;;;10.80;48.40;;;;;;4992191;28;20033;-58
2022/02/21 12:07:26;;;;;;;7.50;1.80;;;10.80;47.50;;;;;;4991571;28;20033;-58
2022/02/21 12:10:14;;;;;;;5.07;1.85;;;10.60;47.00;;;;;;4974431;28;20030;-62
2022/02/21 12:13:13;;;;;;;7.60;1.88;;;10.70;47.70;;;;;;4992155;28;20026;-58
2022/02/21 12:16:05;;;;;;;5.07;1.33;;;10.70;46.50;;;;;;4974100;28;20030;-55
2022/02/21 12:18:38;;;;;;;5.82;1.40;;;10.60;46.00;;;;;;4973900;28;20033;-58
2022/02/21 12:21:28;;;;;;;4.65;1.48;;;10.60;46.20;;;;;;4973823;28;20022;-61
2022/02/21 12:24:00;;;;;;;6.75;1.95;;;10.60;45.40;;;;;;4973480;28;20022;-59
2022/02/21 12:26:39;;;;;;;14.48;2.03;;;10.60;45.40;;;;;;4975013;28;20037;-55
2022/02/21 12:29:23;;;;;;;6.60;1.70;;;10.70;45.90;;;;;;4991199;28;20377;-58
2022/02/21 12:32:08;;;;;;;10.88;1.75;;;10.70;46.00;;;;;;4974275;28;20030;-56
2022/02/21 12:34:38;;;;;;;5.90;1.35;;;10.70;45.00;;;;;;4992640;28;20096;-60
2022/02/21 12:37:09;;;;;;;5.18;1.33;;;10.60;44.50;;;;;;4993918;28;20022;-57
2022/02/21 12:39:43;;;;;;;5.13;1.83;;;10.70;45.70;;;;;;4995240;28;20492;-59
2022/02/21 12:42:09;;;;;;;8.75;1.83;;;10.70;45.00;;;;;;4977338;28;20469;-54
2022/02/21 12:44:54;;;;;;;7.90;2.30;;;10.80;44.50;;;;;;4977959;28;20406;-57
2022/02/21 12:47:21;;;;;;;5.43;1.98;;;11.00;44.00;;;;;;4994828;28;20101;-62